Time;durP1;ratioP1;P1;durP2;ratioP2;P2;SDS_P1;SDS_P2;PMS_P1;PMS_P2;Temp;Humidity;BMP_temperature;BMP_pressure;BME280_temperature;BME280_humidity;BME280_pressure;Samples;Min_cycle;Max_cycle;Signal;HPM_P1;HPM_P2
2022/09/09 00:01:49;;;;;;;2.65;1.92;;;13.70;99.90;;;;;;4853745;29;20124;-85
2022/09/09 00:04:21;;;;;;;3.83;2.00;;;13.70;99.90;;;;;;4878732;29;20040;-85
2022/09/09 00:07:32;;;;;;;4.57;2.92;;;13.70;99.90;;;;;;4865137;29;20049;-85
2022/09/09 00:10:28;;;;;;;4.22;2.50;;;13.70;99.90;;;;;;4843355;29;20061;-85
2022/09/09 00:13:00;;;;;;;5.38;2.95;;;13.70;99.90;;;;;;4852236;29;20044;-87
2022/09/09 00:15:33;;;;;;;6.90;2.70;;;13.70;99.90;;;;;;4865165;29;20041;-87
2022/09/09 00:18:10;;;;;;;5.45;2.90;;;13.70;99.90;;;;;;4864929;29;20737;-87
2022/09/09 00:20:57;;;;;;;4.45;2.30;;;13.60;99.90;;;;;;4880365;29;20484;-87
2022/09/09 00:23:28;;;;;;;3.47;2.13;;;13.60;99.90;;;;;;4854988;29;20078;-87
2022/09/09 00:26:03;;;;;;;4.53;2.97;;;13.50;99.90;;;;;;4861487;29;20054;-87
2022/09/09 00:28:32;;;;;;;6.82;2.70;;;13.50;99.90;;;;;;4876084;29;20123;-87
2022/09/09 00:31:10;;;;;;;5.13;2.67;;;13.50;99.90;;;;;;4864712;29;20132;-87
2022/09/09 00:33:38;;;;;;;4.55;2.50;;;13.50;99.90;;;;;;4879700;29;20049;-87
2022/09/09 00:36:13;;;;;;;4.10;2.63;;;13.50;99.90;;;;;;4849564;29;20045;-87
2022/09/09 00:38:49;;;;;;;3.42;2.47;;;13.50;99.90;;;;;;4880289;29;20060;-88
2022/09/09 00:41:18;;;;;;;4.65;2.50;;;13.50;99.90;;;;;;4880263;29;20139;-87
2022/09/09 00:43:55;;;;;;;5.80;2.60;;;13.40;99.90;;;;;;4866505;29;20400;-85
2022/09/09 00:46:43;;;;;;;5.22;2.50;;;13.40;99.90;;;;;;4879887;29;20440;-85
2022/09/09 00:49:09;;;;;;;3.50;2.00;;;13.40;99.90;;;;;;4864420;29;20045;-85
2022/09/09 00:52:03;;;;;;;3.60;2.10;;;13.40;99.90;;;;;;4864552;29;20049;-85
2022/09/09 00:54:31;;;;;;;2.85;2.00;;;13.30;99.90;;;;;;4863514;29;20052;-85
2022/09/09 00:57:28;;;;;;;3.25;2.13;;;13.30;99.90;;;;;;4877611;29;20045;-85
2022/09/09 01:00:14;;;;;;;3.92;2.22;;;13.30;99.90;;;;;;4880216;29;20045;-85
2022/09/09 01:03:02;;;;;;;6.60;2.80;;;13.30;99.90;;;;;;4863770;29;20049;-87
2022/09/09 01:05:37;;;;;;;4.05;2.45;;;13.30;99.90;;;;;;4871369;29;20038;-86
2022/09/09 01:08:11;;;;;;;4.75;2.70;;;13.30;99.90;;;;;;4879343;29;20048;-87
2022/09/09 01:10:47;;;;;;;3.30;2.20;;;13.20;99.90;;;;;;4879326;29;20061;-87
2022/09/09 01:13:30;;;;;;;3.72;2.55;;;13.20;99.90;;;;;;4879080;29;20084;-87
2022/09/09 01:16:05;;;;;;;5.70;2.75;;;13.30;99.90;;;;;;4877396;29;20045;-87
2022/09/09 01:18:42;;;;;;;3.33;2.10;;;13.20;99.90;;;;;;4863836;29;20041;-85
2022/09/09 01:21:17;;;;;;;3.05;2.25;;;13.30;99.90;;;;;;4864078;29;20075;-85
2022/09/09 01:23:55;;;;;;;5.28;2.30;;;13.30;99.90;;;;;;4863891;29;20045;-85
2022/09/09 01:26:20;;;;;;;4.43;2.50;;;13.40;99.90;;;;;;4854867;29;20081;-85
2022/09/09 01:28:49;;;;;;;3.95;2.30;;;13.40;99.90;;;;;;4864605;29;20568;-85
2022/09/09 01:31:32;;;;;;;3.55;2.10;;;13.40;99.90;;;;;;4845327;29;20052;-85
2022/09/09 01:33:58;;;;;;;3.50;2.13;;;13.40;99.90;;;;;;4845324;29;20041;-85
2022/09/09 01:36:27;;;;;;;5.10;2.67;;;13.40;99.90;;;;;;4845073;29;20041;-85
2022/09/09 01:38:53;;;;;;;4.82;2.38;;;13.50;99.90;;;;;;4875584;29;20150;-85
2022/09/09 01:41:20;;;;;;;3.97;2.15;;;13.50;99.90;;;;;;4843867;29;20116;-85
2022/09/09 01:43:46;;;;;;;4.40;2.50;;;13.90;99.90;;;;;;4859592;29;20048;-85
2022/09/09 01:46:12;;;;;;;4.55;2.53;;;13.50;99.90;;;;;;4860550;29;20041;-85
2022/09/09 01:48:39;;;;;;;7.88;2.50;;;13.90;99.90;;;;;;4860358;29;20751;-85
2022/09/09 01:51:05;;;;;;;3.85;2.20;;;13.60;99.90;;;;;;4845875;29;20045;-85
2022/09/09 01:53:31;;;;;;;3.85;2.22;;;13.60;99.90;;;;;;4848660;29;20392;-85
2022/09/09 01:56:38;;;;;;;4.15;2.08;;;13.70;99.90;;;;;;4859459;29;20045;-85
2022/09/09 01:59:53;;;;;;;3.17;1.90;;;13.70;99.90;;;;;;4862507;29;20052;-85
2022/09/09 02:02:58;;;;;;;3.65;2.45;;;13.70;99.90;;;;;;4878725;29;20044;-85
2022/09/09 02:05:26;;;;;;;2.90;2.17;;;13.70;99.90;;;;;;4807654;29;20112;-85
2022/09/09 02:08:03;;;;;;;3.15;2.00;;;13.70;99.90;;;;;;4789505;29;20141;-87
2022/09/09 02:10:47;;;;;;;6.32;2.10;;;13.70;99.90;;;;;;4844736;29;20057;-88
2022/09/09 02:13:15;;;;;;;7.97;2.42;;;13.70;99.90;;;;;;4863193;29;20045;-88
2022/09/09 02:16:11;;;;;;;3.58;2.13;;;13.70;99.90;;;;;;4878813;29;20101;-87
2022/09/09 02:19:01;;;;;;;4.97;2.33;;;13.70;99.90;;;;;;4878474;29;20049;-88
2022/09/09 02:21:30;;;;;;;3.65;2.45;;;13.70;99.90;;;;;;4826537;29;20049;-88
2022/09/09 02:23:59;;;;;;;4.40;2.55;;;13.60;99.90;;;;;;4841665;29;20050;-85
2022/09/09 02:26:26;;;;;;;3.22;2.05;;;13.70;99.90;;;;;;4841468;29;20046;-85
2022/09/09 02:28:55;;;;;;;3.22;1.98;;;13.60;99.90;;;;;;4867757;29;20053;-85
2022/09/09 02:31:24;;;;;;;6.60;3.00;;;13.60;99.90;;;;;;4850409;29;20057;-85
2022/09/09 02:33:58;;;;;;;3.95;2.20;;;13.60;99.90;;;;;;4841306;29;20052;-85
2022/09/09 02:36:26;;;;;;;6.50;3.28;;;13.60;99.90;;;;;;4841671;29;20053;-85
2022/09/09 02:38:53;;;;;;;4.30;2.40;;;13.60;99.90;;;;;;4841381;29;20077;-85
2022/09/09 02:41:33;;;;;;;3.58;2.10;;;13.50;99.90;;;;;;4849387;29;20041;-87
2022/09/09 02:43:59;;;;;;;4.35;2.42;;;13.50;99.90;;;;;;4863617;29;20045;-87
2022/09/09 02:46:30;;;;;;;5.43;2.72;;;13.50;99.90;;;;;;4844390;29;20496;-87
2022/09/09 02:49:18;;;;;;;8.10;3.35;;;13.50;99.90;;;;;;4844336;29;20485;-87
2022/09/09 02:51:58;;;;;;;9.77;3.45;;;13.50;99.90;;;;;;4845340;29;20054;-87
2022/09/09 02:54:33;;;;;;;5.07;2.90;;;13.50;99.90;;;;;;4844624;29;20049;-87
2022/09/09 02:57:25;;;;;;;5.22;2.45;;;13.60;99.90;;;;;;4859592;29;20093;-87
2022/09/09 02:59:54;;;;;;;4.80;2.90;;;13.60;99.90;;;;;;4845529;29;20049;-88
2022/09/09 03:02:20;;;;;;;5.13;2.90;;;13.60;99.90;;;;;;4850912;29;20049;-87
2022/09/09 03:04:50;;;;;;;7.03;3.25;;;13.60;99.90;;;;;;4844198;29;20137;-88
2022/09/09 03:07:16;;;;;;;5.28;2.83;;;13.60;99.90;;;;;;4816419;29;20508;-87
2022/09/09 03:09:43;;;;;;;4.13;2.60;;;13.70;99.90;;;;;;4839225;29;20057;-88
2022/09/09 03:12:10;;;;;;;5.32;3.00;;;13.60;99.90;;;;;;4858820;29;20551;-87
2022/09/09 03:14:37;;;;;;;6.10;3.25;;;13.70;99.90;;;;;;4863463;29;20045;-88
2022/09/09 03:17:05;;;;;;;4.40;2.63;;;13.70;99.90;;;;;;4862936;29;20046;-88
2022/09/09 03:19:31;;;;;;;4.45;2.72;;;13.70;99.90;;;;;;4862882;29;20507;-88
2022/09/09 03:21:58;;;;;;;6.25;2.70;;;13.70;99.90;;;;;;4863095;29;20059;-87
2022/09/09 03:24:24;;;;;;;6.88;3.33;;;13.70;99.90;;;;;;4876712;29;20045;-87
2022/09/09 03:26:50;;;;;;;6.57;3.05;;;13.70;99.90;;;;;;4881245;29;20049;-87
2022/09/09 03:29:17;;;;;;;4.63;2.65;;;13.70;99.90;;;;;;4881588;29;20400;-87
2022/09/09 03:31:43;;;;;;;5.25;2.83;;;13.70;99.90;;;;;;4865588;29;20140;-87
2022/09/09 03:34:09;;;;;;;5.00;2.58;;;13.70;99.90;;;;;;4878592;29;20445;-87
2022/09/09 03:36:34;;;;;;;4.72;2.97;;;13.70;99.90;;;;;;4834826;29;20067;-88
2022/09/09 03:39:02;;;;;;;6.20;3.65;;;13.70;99.90;;;;;;4844008;29;20045;-87
2022/09/09 03:41:28;;;;;;;5.75;3.13;;;13.80;99.90;;;;;;4874310;29;20057;-87
2022/09/09 03:43:54;;;;;;;7.30;2.97;;;13.80;99.90;;;;;;4839886;29;20037;-88
2022/09/09 03:46:22;;;;;;;7.13;3.72;;;13.80;99.90;;;;;;4850174;29;20125;-87
2022/09/09 03:48:47;;;;;;;4.43;2.45;;;13.80;99.90;;;;;;4866699;29;20458;-87
2022/09/09 03:51:14;;;;;;;7.70;3.15;;;13.80;99.90;;;;;;4846787;29;20086;-87
2022/09/09 03:53:39;;;;;;;5.45;3.10;;;13.80;99.90;;;;;;4862822;29;20128;-87
2022/09/09 03:56:06;;;;;;;5.88;3.05;;;13.80;99.90;;;;;;4850074;29;20123;-87
2022/09/09 03:58:37;;;;;;;4.95;2.75;;;13.80;99.90;;;;;;4865560;29;20436;-87
2022/09/09 04:01:05;;;;;;;5.53;2.70;;;13.80;99.90;;;;;;4880601;29;20045;-87
2022/09/09 04:03:32;;;;;;;7.13;3.50;;;13.90;99.90;;;;;;4880706;29;20049;-87
2022/09/09 04:05:59;;;;;;;4.60;2.85;;;13.80;99.90;;;;;;4864235;29;20052;-87
2022/09/09 04:08:26;;;;;;;6.47;3.35;;;13.90;99.90;;;;;;4864760;29;20052;-87
2022/09/09 04:10:53;;;;;;;4.10;2.88;;;13.90;99.90;;;;;;4865123;29;20056;-87
2022/09/09 04:13:19;;;;;;;6.97;2.58;;;13.90;99.90;;;;;;4869140;29;20072;-87
2022/09/09 04:15:59;;;;;;;8.25;4.65;;;13.90;99.90;;;;;;4838828;29;20043;-87
2022/09/09 04:18:30;;;;;;;4.97;3.00;;;13.90;99.90;;;;;;4880541;29;20369;-87
2022/09/09 04:20:57;;;;;;;6.20;3.17;;;13.90;99.90;;;;;;4865234;29;20076;-87
2022/09/09 04:23:25;;;;;;;5.15;3.47;;;13.90;99.90;;;;;;4880276;29;20404;-87
2022/09/09 04:25:52;;;;;;;5.40;3.25;;;13.90;99.90;;;;;;4880282;29;20144;-87
2022/09/09 04:28:20;;;;;;;6.97;2.95;;;13.90;99.90;;;;;;4864778;29;20084;-87
2022/09/09 04:30:46;;;;;;;4.55;3.00;;;13.90;99.90;;;;;;4880274;29;20044;-87
2022/09/09 04:33:13;;;;;;;5.07;2.90;;;13.80;99.90;;;;;;4880073;29;20449;-87
2022/09/09 04:35:39;;;;;;;5.63;2.80;;;13.90;99.90;;;;;;4864867;29;20395;-87
2022/09/09 04:38:09;;;;;;;7.03;3.30;;;13.90;99.90;;;;;;4861897;29;20041;-87
2022/09/09 04:40:35;;;;;;;5.10;3.08;;;13.90;99.90;;;;;;4861483;29;20094;-87
2022/09/09 04:43:03;;;;;;;5.40;3.15;;;13.90;99.90;;;;;;4846632;29;20049;-87
2022/09/09 04:45:30;;;;;;;4.53;2.95;;;13.90;99.90;;;;;;4854377;29;20045;-87
2022/09/09 04:47:55;;;;;;;6.10;2.72;;;13.90;99.90;;;;;;4862054;29;20049;-87
2022/09/09 04:50:21;;;;;;;4.22;2.55;;;14.00;99.90;;;;;;4861281;29;20137;-87
2022/09/09 04:52:47;;;;;;;4.13;2.65;;;14.00;99.90;;;;;;4845752;29;20045;-87
2022/09/09 04:55:13;;;;;;;5.50;3.08;;;14.00;99.90;;;;;;4850846;29;20048;-87
2022/09/09 04:57:39;;;;;;;6.18;3.38;;;14.10;99.90;;;;;;4863677;29;20045;-88
2022/09/09 05:00:06;;;;;;;4.88;3.15;;;14.10;99.90;;;;;;4864211;29;20052;-87
2022/09/09 05:02:38;;;;;;;4.88;3.35;;;14.10;99.90;;;;;;4864814;29;20404;-88
2022/09/09 05:05:04;;;;;;;6.85;3.30;;;14.10;99.90;;;;;;4847807;29;20121;-87
2022/09/09 05:07:31;;;;;;;6.47;3.50;;;14.10;99.90;;;;;;4830801;29;20135;-87
2022/09/09 05:09:57;;;;;;;5.13;3.20;;;14.20;99.90;;;;;;4845511;29;20857;-87
2022/09/09 05:12:25;;;;;;;7.20;3.78;;;14.20;99.90;;;;;;4845456;29;20060;-88
2022/09/09 05:14:51;;;;;;;5.38;3.00;;;14.20;99.90;;;;;;4863430;29;20124;-87
2022/09/09 05:17:17;;;;;;;6.60;3.85;;;14.20;99.90;;;;;;4845259;29;20093;-88
2022/09/09 05:19:43;;;;;;;7.32;3.85;;;14.20;99.90;;;;;;4845575;29;20048;-87
2022/09/09 05:22:11;;;;;;;7.43;3.50;;;14.20;99.90;;;;;;4860641;29;20106;-87
2022/09/09 05:24:37;;;;;;;8.32;3.60;;;14.20;99.90;;;;;;4867517;29;20047;-88
2022/09/09 05:27:05;;;;;;;6.72;3.97;;;14.20;99.90;;;;;;4872019;29;20073;-85
2022/09/09 05:29:33;;;;;;;7.40;4.22;;;14.20;99.90;;;;;;4855596;29;20143;-85
2022/09/09 05:31:59;;;;;;;6.38;4.25;;;14.20;99.90;;;;;;4832231;29;20523;-85
2022/09/09 05:34:25;;;;;;;8.13;4.15;;;14.20;99.90;;;;;;4862240;29;20037;-85
2022/09/09 05:36:52;;;;;;;7.63;4.78;;;14.20;99.90;;;;;;4845151;29;20077;-85
2022/09/09 05:39:18;;;;;;;7.57;4.22;;;14.20;99.90;;;;;;4863673;29;20111;-85
2022/09/09 05:41:44;;;;;;;6.32;3.78;;;14.20;99.90;;;;;;4862859;29;20400;-85
2022/09/09 05:44:09;;;;;;;8.10;4.57;;;14.30;99.90;;;;;;4833186;29;20045;-86
2022/09/09 05:46:35;;;;;;;5.97;3.70;;;14.30;99.90;;;;;;4846161;29;20131;-87
2022/09/09 05:49:02;;;;;;;7.28;4.22;;;14.40;99.90;;;;;;4855874;29;20548;-87
2022/09/09 05:51:30;;;;;;;6.95;4.07;;;14.40;99.90;;;;;;4828138;29;20045;-86
2022/09/09 05:53:58;;;;;;;7.78;4.28;;;14.40;99.90;;;;;;4841579;29;20462;-87
2022/09/09 05:56:26;;;;;;;5.03;3.08;;;14.40;99.90;;;;;;4857755;29;20054;-87
2022/09/09 05:58:56;;;;;;;8.32;4.03;;;14.60;99.90;;;;;;4868706;29;20033;-87
2022/09/09 06:01:42;;;;;;;7.07;3.60;;;14.50;99.90;;;;;;4878516;29;20033;-87
2022/09/09 06:04:08;;;;;;;5.65;3.17;;;14.50;99.90;;;;;;4878336;29;20045;-87
2022/09/09 06:06:39;;;;;;;5.10;3.15;;;14.50;99.90;;;;;;4847595;29;20038;-87
2022/09/09 06:09:09;;;;;;;6.38;3.40;;;14.60;99.90;;;;;;4860307;29;20132;-89
2022/09/09 06:11:36;;;;;;;6.93;3.70;;;14.70;99.90;;;;;;4863545;29;20042;-89
2022/09/09 06:14:03;;;;;;;5.60;3.45;;;14.70;99.90;;;;;;4844742;29;20053;-89
2022/09/09 06:16:30;;;;;;;5.88;3.65;;;14.80;99.90;;;;;;4829584;29;20064;-89
2022/09/09 06:18:57;;;;;;;4.53;2.85;;;15.00;99.90;;;;;;4863416;29;20044;-91
2022/09/09 06:21:25;;;;;;;7.65;3.97;;;15.10;99.90;;;;;;4861287;29;20045;-91
2022/09/09 06:23:54;;;;;;;5.38;3.15;;;15.20;99.90;;;;;;4863632;29;20037;-91
2022/09/09 06:26:37;;;;;;;7.70;4.03;;;15.30;99.90;;;;;;4819885;29;20388;-91
2022/09/09 06:29:04;;;;;;;6.65;4.18;;;15.30;99.90;;;;;;4844591;29;20133;-91
2022/09/09 06:31:31;;;;;;;6.75;4.18;;;15.20;99.90;;;;;;4853710;29;20042;-91
2022/09/09 06:33:58;;;;;;;7.75;4.25;;;15.20;99.90;;;;;;4874514;29;20045;-87
2022/09/09 06:36:26;;;;;;;10.90;4.28;;;15.20;99.90;;;;;;4844727;29;20041;-86
2022/09/09 06:38:52;;;;;;;6.00;3.75;;;15.10;99.90;;;;;;4833161;29;20132;-87
2022/09/09 06:41:19;;;;;;;8.50;4.57;;;15.10;99.90;;;;;;4829252;29;20313;-87
2022/09/09 06:43:46;;;;;;;6.82;4.00;;;15.00;99.90;;;;;;4864394;29;20102;-84
2022/09/09 06:46:13;;;;;;;7.35;3.58;;;15.00;99.90;;;;;;4863100;29;20105;-84
2022/09/09 06:48:40;;;;;;;6.05;3.72;;;15.00;99.90;;;;;;4850420;29;20434;-84
2022/09/09 06:51:13;;;;;;;7.15;3.80;;;15.10;99.90;;;;;;4863002;29;20045;-84
2022/09/09 06:53:41;;;;;;;6.95;3.60;;;15.10;99.90;;;;;;4871734;29;20045;-86
2022/09/09 06:56:10;;;;;;;8.32;4.50;;;15.10;99.90;;;;;;4857643;29;20169;-84
2022/09/09 06:58:42;;;;;;;6.57;3.78;;;15.10;99.90;;;;;;4865997;29;20124;-84
2022/09/09 07:01:09;;;;;;;8.48;3.90;;;15.10;99.90;;;;;;4880998;29;20401;-84
2022/09/09 07:03:35;;;;;;;7.35;3.45;;;15.20;99.90;;;;;;4861872;29;20045;-84
2022/09/09 07:06:01;;;;;;;5.35;3.38;;;15.30;99.90;;;;;;4841987;29;20041;-84
2022/09/09 07:08:28;;;;;;;4.97;3.00;;;15.30;99.90;;;;;;4871320;29;20149;-85
2022/09/09 07:10:54;;;;;;;6.78;3.42;;;15.40;99.90;;;;;;4863173;29;20076;-85
2022/09/09 07:13:28;;;;;;;5.43;2.95;;;15.50;99.90;;;;;;4862604;29;20492;-85
2022/09/09 07:15:54;;;;;;;5.55;3.30;;;15.60;99.90;;;;;;4879259;29;20072;-85
2022/09/09 07:18:20;;;;;;;5.82;3.00;;;15.70;99.90;;;;;;4862034;29;20531;-83
2022/09/09 07:20:56;;;;;;;4.97;2.95;;;15.80;99.90;;;;;;4865433;29;20041;-84
2022/09/09 07:23:23;;;;;;;7.45;3.45;;;16.00;99.90;;;;;;4851013;29;20389;-83
2022/09/09 07:25:50;;;;;;;5.40;3.00;;;16.20;99.90;;;;;;4869813;29;20219;-83
2022/09/09 07:28:16;;;;;;;4.30;2.65;;;16.60;99.90;;;;;;4847363;29;20563;-83
2022/09/09 07:30:42;;;;;;;6.80;2.95;;;17.00;99.90;;;;;;4850086;29;20396;-83
2022/09/09 07:33:09;;;;;;;5.45;3.05;;;17.30;99.90;;;;;;4862404;29;20068;-84
2022/09/09 07:35:38;;;;;;;5.40;2.53;;;17.50;99.90;;;;;;4861006;29;20586;-88
2022/09/09 07:38:07;;;;;;;4.82;2.80;;;17.80;99.90;;;;;;4857105;29;20647;-85
2022/09/09 07:40:36;;;;;;;5.47;2.85;;;18.10;99.90;;;;;;4846153;29;20101;-86
2022/09/09 07:43:01;;;;;;;5.30;2.75;;;19.00;99.90;;;;;;4829750;29;20042;-86
2022/09/09 07:45:32;;;;;;;5.10;2.53;;;20.50;99.90;;;;;;4864635;29;20041;-86
2022/09/09 07:47:58;;;;;;;4.55;2.42;;;22.20;99.90;;;;;;4836411;29;20050;-87
2022/09/09 07:50:24;;;;;;;3.88;2.00;;;24.00;99.90;;;;;;4840263;29;20057;-87
2022/09/09 07:52:53;;;;;;;3.08;1.70;;;25.10;99.90;;;;;;4862020;29;20092;-87
2022/09/09 07:55:20;;;;;;;3.10;1.73;;;25.40;99.90;;;;;;4830979;29;20420;-87
2022/09/09 07:57:47;;;;;;;2.60;1.58;;;25.40;99.90;;;;;;4879111;29;20048;-86
2022/09/09 08:00:14;;;;;;;3.80;2.15;;;25.00;99.90;;;;;;4874358;29;20124;-87
2022/09/09 08:02:40;;;;;;;3.10;1.90;;;24.10;99.10;;;;;;4868244;29;20092;-87
2022/09/09 08:05:06;;;;;;;4.63;2.33;;;23.50;99.90;;;;;;4846077;29;20496;-87
2022/09/09 08:07:32;;;;;;;5.07;1.90;;;23.80;99.90;;;;;;4873022;29;20049;-86
2022/09/09 08:09:58;;;;;;;2.08;1.35;;;23.90;99.90;;;;;;4862594;29;20069;-88
2022/09/09 08:12:24;;;;;;;3.30;1.80;;;25.00;99.90;;;;;;4831176;29;20042;-88
2022/09/09 08:14:51;;;;;;;4.55;1.50;;;25.40;98.50;;;;;;4843370;29;20190;-87
2022/09/09 08:17:17;;;;;;;5.43;1.73;;;26.10;99.00;;;;;;4855884;29;20041;-87
2022/09/09 08:19:45;;;;;;;3.67;1.52;;;25.70;96.70;;;;;;4844748;29;20568;-87
2022/09/09 08:22:11;;;;;;;4.40;1.60;;;25.70;97.10;;;;;;4831737;29;20048;-87
2022/09/09 08:24:36;;;;;;;3.17;1.50;;;26.50;98.40;;;;;;4851081;29;20045;-88
2022/09/09 08:27:02;;;;;;;2.13;1.48;;;27.40;96.00;;;;;;4830842;29;20048;-88
2022/09/09 08:29:34;;;;;;;4.32;1.50;;;27.60;94.70;;;;;;4861099;29;20140;-88
2022/09/09 08:32:02;;;;;;;4.28;1.70;;;26.60;94.70;;;;;;4877214;29;20543;-86
2022/09/09 08:34:33;;;;;;;4.00;1.75;;;25.80;95.50;;;;;;4824617;29;20128;-87
2022/09/09 08:36:59;;;;;;;4.70;1.80;;;24.80;95.80;;;;;;4838432;29;20082;-87
2022/09/09 08:39:27;;;;;;;3.35;1.63;;;24.60;98.90;;;;;;4820612;29;20087;-86
2022/09/09 08:42:24;;;;;;;2.50;1.30;;;24.70;98.10;;;;;;4828472;29;20037;-86
2022/09/09 08:45:19;;;;;;;4.95;2.15;;;25.30;98.80;;;;;;4875566;29;20077;-86
2022/09/09 08:48:00;;;;;;;7.32;2.08;;;24.80;97.40;;;;;;4859641;29;20084;-86
2022/09/09 08:50:31;;;;;;;4.10;1.92;;;24.00;98.30;;;;;;4853252;29;20052;-86
2022/09/09 08:53:17;;;;;;;4.88;2.30;;;24.10;99.40;;;;;;4845479;29;20396;-87
2022/09/09 08:55:59;;;;;;;;;;;24.10;99.20;;;;;;4846081;29;20052;-87
2022/09/09 08:58:34;;;;;;;3.42;1.42;;;24.00;99.90;;;;;;4861437;29;19986;-87
2022/09/09 09:01:08;;;;;;;3.20;1.73;;;23.80;99.90;;;;;;4861103;29;20041;-87
2022/09/09 09:03:59;;;;;;;2.90;1.38;;;23.70;99.90;;;;;;4845799;29;20317;-87
2022/09/09 09:07:22;;;;;;;2.47;1.50;;;23.60;99.90;;;;;;4861253;29;20050;-86
2022/09/09 09:09:58;;;;;;;6.35;1.98;;;23.20;99.90;;;;;;4772234;30;20066;-87
2022/09/09 09:12:28;;;;;;;3.65;1.30;;;23.40;99.90;;;;;;4832168;29;20057;-87
2022/09/09 09:14:58;;;;;;;2.65;1.50;;;24.50;99.90;;;;;;4857216;29;20540;-86
2022/09/09 09:17:27;;;;;;;4.70;1.25;;;25.80;99.10;;;;;;4860767;29;20043;-87
2022/09/09 09:19:53;;;;;;;6.28;2.00;;;26.90;99.40;;;;;;4845057;29;20080;-87
2022/09/09 09:22:21;;;;;;;3.75;1.20;;;27.60;93.70;;;;;;4862130;29;20512;-89
2022/09/09 09:24:59;;;;;;;1.95;1.05;;;27.60;93.50;;;;;;4849511;29;20046;-88
2022/09/09 09:27:36;;;;;;;5.38;1.35;;;27.50;93.20;;;;;;4845507;29;20107;-89
2022/09/09 09:30:17;;;;;;;2.75;1.45;;;26.50;93.80;;;;;;4861851;29;20052;-88
2022/09/09 09:33:02;;;;;;;3.85;1.23;;;24.80;95.60;;;;;;4860532;29;20128;-89
2022/09/09 09:35:28;;;;;;;3.33;1.63;;;24.40;97.20;;;;;;4858655;29;20050;-89
2022/09/09 09:37:56;;;;;;;2.65;1.10;;;23.90;99.30;;;;;;4860378;29;20073;-87
2022/09/09 09:40:23;;;;;;;6.00;1.40;;;23.40;99.20;;;;;;4860240;29;20434;-87
2022/09/09 09:43:00;;;;;;;3.72;1.50;;;22.80;99.90;;;;;;4859732;29;20101;-87
2022/09/09 09:45:46;;;;;;;2.90;1.42;;;22.10;99.90;;;;;;4851767;29;20045;-87
2022/09/09 09:48:13;;;;;;;3.35;1.27;;;21.90;99.90;;;;;;4845923;29;20080;-86
2022/09/09 09:50:50;;;;;;;4.82;1.45;;;21.40;99.90;;;;;;4860799;29;20059;-87
2022/09/09 09:53:21;;;;;;;4.03;1.33;;;21.10;99.90;;;;;;4866995;29;20116;-87
2022/09/09 09:55:53;;;;;;;2.25;1.55;;;20.70;99.90;;;;;;4871259;29;20033;-87
2022/09/09 09:58:19;;;;;;;2.60;1.17;;;20.70;99.90;;;;;;4870749;29;20073;-87
2022/09/09 10:00:49;;;;;;;1.83;0.90;;;20.70;99.90;;;;;;4863062;29;20068;-89
2022/09/09 10:03:38;;;;;;;3.10;1.27;;;20.80;99.90;;;;;;4861203;29;20468;-88
2022/09/09 10:06:05;;;;;;;2.63;1.30;;;21.20;99.90;;;;;;4857164;29;20084;-88
2022/09/09 10:08:34;;;;;;;1.52;1.10;;;21.40;99.90;;;;;;4859609;29;20053;-88
2022/09/09 10:11:09;;;;;;;3.55;1.27;;;21.50;99.90;;;;;;4860177;29;20064;-89
2022/09/09 10:14:02;;;;;;;5.28;1.30;;;21.60;99.90;;;;;;4844773;29;20042;-89
2022/09/09 10:16:52;;;;;;;1.70;1.58;;;21.50;99.90;;;;;;4859344;29;20085;-89
2022/09/09 10:19:36;;;;;;;3.63;1.13;;;21.50;99.90;;;;;;4844678;29;20037;-89
2022/09/09 10:22:29;;;;;;;4.20;0.95;;;21.40;99.90;;;;;;4844934;29;20084;-88
2022/09/09 10:25:10;;;;;;;1.83;0.88;;;21.40;99.90;;;;;;4844706;29;20049;-87
2022/09/09 10:27:49;;;;;;;3.00;1.35;;;21.20;99.90;;;;;;4857688;29;20511;-88
2022/09/09 10:30:19;;;;;;;4.65;1.60;;;20.80;99.90;;;;;;4855729;29;20045;-87
2022/09/09 10:32:56;;;;;;;2.67;1.20;;;20.80;99.90;;;;;;4869548;29;20048;-88
2022/09/09 10:35:43;;;;;;;3.22;1.40;;;20.70;99.90;;;;;;4870442;29;20129;-87
2022/09/09 10:38:40;;;;;;;2.88;1.10;;;20.90;99.90;;;;;;4853799;29;20045;-87
2022/09/09 10:41:12;;;;;;;;;;;21.70;99.90;;;;;;4864224;29;20034;-87
2022/09/09 10:44:17;;;;;;;1.30;0.88;;;23.80;99.90;;;;;;4852778;29;19928;-87
2022/09/09 10:47:01;;;;;;;4.43;1.77;;;24.50;99.60;;;;;;4859648;29;20052;-87
2022/09/09 10:49:50;;;;;;;2.05;1.08;;;24.40;99.10;;;;;;4854468;29;20046;-86
2022/09/09 10:52:39;;;;;;;2.30;0.80;;;23.90;98.80;;;;;;4841093;29;20061;-87
2022/09/09 10:55:19;;;;;;;5.38;1.10;;;23.40;98.30;;;;;;4841439;29;20464;-87
2022/09/09 10:57:53;;;;;;;2.30;0.90;;;23.20;99.60;;;;;;4849193;29;20093;-87
2022/09/09 11:00:39;;;;;;;4.30;1.48;;;22.70;99.90;;;;;;4859207;29;20053;-86
2022/09/09 11:03:06;;;;;;;2.65;1.17;;;22.70;99.90;;;;;;4843805;29;20493;-85
2022/09/09 11:05:48;;;;;;;4.95;1.25;;;23.00;99.90;;;;;;4841596;29;20050;-86
2022/09/09 11:08:19;;;;;;;3.63;1.38;;;23.40;99.50;;;;;;4825751;29;20041;-86
2022/09/09 11:11:02;;;;;;;2.92;1.05;;;23.50;99.90;;;;;;4841205;29;20121;-85
2022/09/09 11:13:51;;;;;;;4.38;1.50;;;23.10;99.50;;;;;;4857458;29;20485;-85
2022/09/09 11:16:36;;;;;;;3.80;1.27;;;23.20;99.50;;;;;;4872222;29;20492;-85
2022/09/09 11:19:05;;;;;;;1.95;0.98;;;24.10;98.10;;;;;;4874369;29;20389;-86
2022/09/09 11:21:47;;;;;;;1.05;0.77;;;25.00;97.00;;;;;;4860634;29;20412;-86
2022/09/09 11:24:16;;;;;;;2.97;1.00;;;25.30;95.90;;;;;;4870759;23;20093;-86
2022/09/09 11:26:49;;;;;;;2.17;0.80;;;24.60;97.10;;;;;;4876899;29;20048;-85
2022/09/09 11:29:22;;;;;;;0.88;0.70;;;24.30;96.60;;;;;;4868077;29;20044;-85
2022/09/09 11:32:06;;;;;;;3.13;1.10;;;24.20;96.90;;;;;;4881045;29;20049;-85
2022/09/09 11:34:54;;;;;;;2.88;0.88;;;23.90;97.70;;;;;;4864015;29;20041;-87
2022/09/09 11:37:46;;;;;;;2.03;1.15;;;23.40;98.70;;;;;;4847576;29;20049;-87
2022/09/09 11:40:26;;;;;;;3.80;1.40;;;23.00;98.30;;;;;;4847269;29;20105;-87
2022/09/09 11:43:17;;;;;;;4.28;1.48;;;22.80;99.60;;;;;;4861517;29;20049;-87
2022/09/09 11:45:52;;;;;;;2.75;0.98;;;22.20;99.90;;;;;;4879038;29;20059;-87
2022/09/09 11:48:33;;;;;;;3.40;1.23;;;21.80;99.90;;;;;;4865254;29;20048;-87
2022/09/09 11:51:07;;;;;;;2.08;0.80;;;21.30;99.90;;;;;;4856646;29;20113;-85
2022/09/09 11:53:34;;;;;;;2.50;1.00;;;21.00;99.90;;;;;;4862065;29;20058;-86
2022/09/09 11:56:13;;;;;;;2.30;1.00;;;20.70;99.90;;;;;;4847195;29;20345;-86
2022/09/09 11:58:54;;;;;;;3.92;1.75;;;20.60;99.90;;;;;;4862147;29;20052;-86
2022/09/09 12:01:43;;;;;;;3.33;1.67;;;20.60;99.90;;;;;;4858719;29;20758;-86
2022/09/09 12:04:09;;;;;;;4.28;2.05;;;20.60;99.90;;;;;;4854168;29;20186;-85
2022/09/09 12:07:11;;;;;;;3.60;1.50;;;20.90;99.90;;;;;;4873793;29;20048;-85
2022/09/09 12:10:19;;;;;;;2.92;1.50;;;21.50;99.90;;;;;;4851293;29;20523;-86
2022/09/09 12:12:44;;;;;;;3.60;0.98;;;22.20;99.90;;;;;;4849203;29;20038;-87
2022/09/09 12:15:11;;;;;;;3.97;1.65;;;22.30;99.90;;;;;;4820747;29;20052;-87
2022/09/09 12:17:53;;;;;;;2.42;1.55;;;22.80;99.90;;;;;;4847617;29;20037;-87
2022/09/09 12:20:35;;;;;;;4.28;1.05;;;22.60;99.90;;;;;;4869290;29;20496;-87
2022/09/09 12:23:29;;;;;;;3.15;1.20;;;22.70;99.90;;;;;;4879801;29;20064;-87
2022/09/09 12:26:09;;;;;;;2.85;1.08;;;22.50;99.90;;;;;;4858605;29;20108;-87
2022/09/09 12:28:41;;;;;;;3.33;1.10;;;22.30;99.90;;;;;;4869050;29;20120;-87
2022/09/09 12:31:32;;;;;;;2.38;0.85;;;22.40;99.90;;;;;;4861517;29;20048;-87
2022/09/09 12:34:14;;;;;;;6.80;1.55;;;22.30;99.90;;;;;;4845991;29;20515;-86
2022/09/09 12:36:42;;;;;;;4.57;0.98;;;22.30;99.90;;;;;;4861462;29;20120;-87
2022/09/09 12:39:24;;;;;;;2.65;1.38;;;22.20;99.90;;;;;;4858554;29;20049;-87
2022/09/09 12:41:56;;;;;;;4.82;1.25;;;22.20;99.90;;;;;;4864352;29;20506;-86
2022/09/09 12:44:23;;;;;;;1.65;0.82;;;22.10;99.90;;;;;;4856375;29;20045;-87
2022/09/09 12:46:50;;;;;;;2.30;0.98;;;22.10;99.90;;;;;;4855272;29;20124;-87
2022/09/09 12:49:34;;;;;;;2.65;0.98;;;22.30;99.90;;;;;;4848899;29;20049;-86
2022/09/09 12:52:21;;;;;;;2.10;1.27;;;22.50;99.90;;;;;;4832572;29;20584;-87
2022/09/09 12:54:47;;;;;;;2.28;0.88;;;22.30;99.90;;;;;;4854430;29;20061;-87
2022/09/09 12:57:15;;;;;;;4.05;1.30;;;22.30;99.90;;;;;;4862964;29;20046;-86
2022/09/09 12:59:44;;;;;;;2.00;1.27;;;22.30;99.90;;;;;;4841083;29;20040;-86
2022/09/09 13:02:26;;;;;;;1.63;0.82;;;22.40;99.90;;;;;;4846915;29;20041;-86
2022/09/09 13:04:53;;;;;;;0.90;0.60;;;22.50;99.90;;;;;;4866023;29;20044;-86
2022/09/09 13:07:21;;;;;;;4.15;1.25;;;22.60;99.90;;;;;;4862535;29;20046;-85
2022/09/09 13:09:50;;;;;;;2.40;1.05;;;22.70;99.90;;;;;;4844966;29;20045;-85
2022/09/09 13:12:20;;;;;;;1.80;0.95;;;22.40;99.90;;;;;;4844998;29;20119;-85
2022/09/09 13:14:56;;;;;;;3.55;1.00;;;22.10;99.90;;;;;;4860517;29;20037;-86
2022/09/09 13:17:31;;;;;;;3.33;1.10;;;21.80;99.90;;;;;;4860232;29;20052;-86
2022/09/09 13:19:57;;;;;;;3.35;1.05;;;21.50;99.90;;;;;;4860162;29;20045;-86